createdAt,value
2019-03-06T00:00:01.019Z,77.77
2019-03-06T00:02:27.713Z,77.85
2019-03-06T00:04:54.320Z,77.79
2019-03-06T00:07:20.951Z,77.89
2019-03-06T00:09:47.529Z,77.93
2019-03-06T00:12:14.216Z,77.92
2019-03-06T00:14:40.914Z,77.89
2019-03-06T00:17:07.516Z,77.79
2019-03-06T00:19:34.121Z,77.76
2019-03-06T00:22:00.703Z,77.76
2019-03-06T00:24:27.414Z,77.80
2019-03-06T00:26:54.008Z,77.94
2019-03-06T00:29:20.907Z,77.98
2019-03-06T00:31:47.599Z,77.96
2019-03-06T00:34:14.185Z,77.86
2019-03-06T00:36:40.797Z,77.76
2019-03-06T00:39:07.831Z,77.67
2019-03-06T00:41:36.886Z,77.71
2019-03-06T00:44:03.484Z,77.74
2019-03-06T00:46:30.174Z,77.69
2019-03-06T00:48:56.764Z,77.67
2019-03-06T00:51:23.473Z,77.70
2019-03-06T00:53:50.076Z,77.72
2019-03-06T00:56:16.714Z,77.75
2019-03-06T00:58:43.416Z,77.56
2019-03-06T01:01:10.157Z,77.49
2019-03-06T01:03:36.856Z,77.57
2019-03-06T01:06:03.549Z,77.45
2019-03-06T01:08:30.253Z,77.45
2019-03-06T01:10:56.841Z,77.69
2019-03-06T01:13:23.452Z,77.83
2019-03-06T01:15:50.063Z,77.65
2019-03-06T01:18:16.760Z,77.67
2019-03-06T01:20:43.368Z,77.77
2019-03-06T01:23:10.094Z,78.03
2019-03-06T01:25:36.777Z,78.15
2019-03-06T01:28:03.361Z,78.13
2019-03-06T01:30:29.969Z,78.03
2019-03-06T01:33:02.114Z,78.04
2019-03-06T01:35:54.170Z,78.08
2019-03-06T01:38:36.145Z,78.23
2019-03-06T01:41:07.745Z,78.21
2019-03-06T01:43:39.360Z,78.28
2019-03-06T01:46:05.977Z,78.27
2019-03-06T01:48:32.596Z,78.26
2019-03-06T01:50:59.282Z,78.21
2019-03-06T01:53:25.971Z,78.15
2019-03-06T01:55:52.565Z,78.19
2019-03-06T01:58:19.584Z,78.11
2019-03-06T02:00:46.275Z,78.08
2019-03-06T02:03:13.002Z,78.12
2019-03-06T02:05:39.593Z,77.93
2019-03-06T02:08:06.296Z,77.94
2019-03-06T02:10:32.881Z,77.93
2019-03-06T02:12:59.904Z,77.89
2019-03-06T02:15:26.592Z,77.63
2019-03-06T02:17:53.194Z,77.58
2019-03-06T02:20:19.780Z,77.55
2019-03-06T02:22:46.486Z,77.43
2019-03-06T02:25:16.015Z,77.51
2019-03-06T02:27:42.908Z,77.52
2019-03-06T02:30:10.933Z,77.48
2019-03-06T02:32:37.634Z,77.40
2019-03-06T02:35:04.432Z,77.41
2019-03-06T02:37:31.021Z,77.39
2019-03-06T02:39:57.618Z,77.35
2019-03-06T02:42:24.524Z,77.27
2019-03-06T02:44:51.199Z,77.19
2019-03-06T02:47:17.817Z,77.06
2019-03-06T02:49:44.521Z,77.20
2019-03-06T02:52:11.213Z,77.55
2019-03-06T02:54:37.811Z,77.73
2019-03-06T02:57:04.601Z,77.75
2019-03-06T02:59:43.041Z,77.72
2019-03-06T03:02:35.544Z,77.65
2019-03-06T03:05:10.841Z,77.60
2019-03-06T03:07:37.445Z,77.54
2019-03-06T03:10:04.518Z,77.50
2019-03-06T03:12:31.142Z,77.57
2019-03-06T03:14:57.733Z,77.69
2019-03-06T03:17:24.436Z,77.66
2019-03-06T03:19:51.124Z,77.53
2019-03-06T03:22:17.825Z,77.69
2019-03-06T03:24:44.521Z,77.80
2019-03-06T03:27:11.114Z,77.79
2019-03-06T03:29:37.820Z,77.77
2019-03-06T03:32:04.403Z,77.71
2019-03-06T03:34:31.345Z,77.75
2019-03-06T03:36:58.038Z,77.86
2019-03-06T03:39:24.741Z,77.77
2019-03-06T03:41:51.420Z,77.68
2019-03-06T03:44:18.111Z,77.73
2019-03-06T03:46:44.817Z,77.95
2019-03-06T03:49:11.505Z,78.08
2019-03-06T03:51:38.217Z,78.22
2019-03-06T03:54:04.901Z,78.19
2019-03-06T03:56:31.598Z,78.15
2019-03-06T03:58:58.189Z,78.00
2019-03-06T04:01:24.809Z,77.91
2019-03-06T04:03:51.493Z,77.90
2019-03-06T04:06:18.284Z,77.74
2019-03-06T04:08:45.013Z,77.61
2019-03-06T04:11:11.696Z,77.49
2019-03-06T04:13:38.404Z,77.48
2019-03-06T04:16:04.990Z,77.35
2019-03-06T04:18:31.683Z,77.58
2019-03-06T04:20:58.666Z,77.57
2019-03-06T04:23:25.408Z,77.51
2019-03-06T04:25:52.112Z,77.45
2019-03-06T04:28:18.793Z,77.51
2019-03-06T04:30:45.385Z,77.46
2019-03-06T04:33:11.999Z,77.48
2019-03-06T04:35:38.691Z,77.51
2019-03-06T04:38:05.324Z,77.53
2019-03-06T04:40:31.951Z,77.63
2019-03-06T04:42:58.666Z,77.71
2019-03-06T04:45:25.257Z,77.92
2019-03-06T04:47:51.852Z,77.91
2019-03-06T04:50:18.546Z,77.85
2019-03-06T04:52:45.142Z,77.70
2019-03-06T04:55:15.217Z,77.51
2019-03-06T04:57:41.907Z,77.50
2019-03-06T05:00:09.101Z,77.51
2019-03-06T05:02:35.695Z,77.71
2019-03-06T05:05:02.426Z,77.78
2019-03-06T05:07:29.017Z,77.88
2019-03-06T05:09:55.604Z,78.12
2019-03-06T05:12:22.204Z,78.51
2019-03-06T05:14:48.793Z,78.72
2019-03-06T05:17:30.876Z,78.78
2019-03-06T05:19:57.570Z,78.92
2019-03-06T05:22:24.280Z,79.12
2019-03-06T05:24:50.872Z,79.21
2019-03-06T05:27:17.472Z,79.23
2019-03-06T05:29:44.092Z,79.28
2019-03-06T05:32:36.354Z,79.33
2019-03-06T05:35:08.048Z,79.38
2019-03-06T05:37:51.334Z,79.46
2019-03-06T05:40:18.052Z,79.42
2019-03-06T05:42:44.649Z,79.38
2019-03-06T05:45:11.261Z,79.33
2019-03-06T05:47:37.860Z,79.29
2019-03-06T05:50:04.585Z,79.30
2019-03-06T05:52:31.478Z,79.30
2019-03-06T05:54:58.066Z,79.17
2019-03-06T05:57:24.671Z,79.08
2019-03-06T05:59:51.267Z,78.94
2019-03-06T06:02:17.863Z,78.72
2019-03-06T06:04:44.555Z,78.56
2019-03-06T06:07:11.347Z,78.40
2019-03-06T06:09:37.949Z,78.40
2019-03-06T06:12:04.678Z,79.40
2019-03-06T06:14:31.273Z,80.78
2019-03-06T06:16:57.986Z,80.55
2019-03-06T06:19:24.701Z,80.09
2019-03-06T06:22:09.198Z,79.18
2019-03-06T06:24:35.853Z,77.92
2019-03-06T06:27:02.555Z,76.99
2019-03-06T06:29:29.255Z,76.24
2019-03-06T06:31:55.987Z,75.16
2019-03-06T06:34:22.705Z,74.16
2019-03-06T06:36:49.306Z,73.42
2019-03-06T06:39:16.047Z,72.65
2019-03-06T06:41:42.745Z,71.76
2019-03-06T06:44:09.373Z,74.04
2019-03-06T06:46:35.976Z,72.04
2019-03-06T06:49:03.624Z,73.90
2019-03-06T06:51:51.665Z,74.47
2019-03-06T06:54:21.138Z,72.84
2019-03-06T06:57:04.872Z,72.64
2019-03-06T06:59:34.471Z,74.00
2019-03-06T07:02:36.951Z,72.31
2019-03-06T07:05:27.098Z,68.25
2019-03-06T07:08:01.042Z,70.65
2019-03-06T07:10:45.864Z,68.87
2019-03-06T07:13:17.866Z,70.92
2019-03-06T07:16:02.561Z,69.40
2019-03-06T07:18:34.796Z,69.19
2019-03-06T07:21:24.241Z,66.41
2019-03-06T07:24:13.358Z,66.83
2019-03-06T07:26:59.571Z,68.20
2019-03-06T07:29:46.344Z,69.45
2019-03-06T07:32:48.134Z,70.44
2019-03-06T07:35:51.264Z,71.22
2019-03-06T07:38:17.927Z,72.04
2019-03-06T07:41:21.905Z,72.86
2019-03-06T07:44:06.789Z,73.03
2019-03-06T07:47:05.300Z,73.17
2019-03-06T07:49:45.006Z,73.48
2019-03-06T07:52:33.624Z,73.49
2019-03-06T07:55:28.721Z,73.72
2019-03-06T07:58:30.005Z,75.34
2019-03-06T08:00:56.713Z,76.25
2019-03-06T08:03:29.286Z,73.19
2019-03-06T08:05:55.891Z,74.28
2019-03-06T08:08:22.597Z,72.08
2019-03-06T08:10:50.323Z,71.90
2019-03-06T08:13:23.769Z,72.07
2019-03-06T08:16:00.279Z,72.32
2019-03-06T08:18:44.918Z,71.59
2019-03-06T08:21:28.826Z,70.28
2019-03-06T08:24:04.518Z,69.78
2019-03-06T08:26:31.253Z,69.47
2019-03-06T08:28:57.949Z,70.41
2019-03-06T08:31:44.107Z,69.81
2019-03-06T08:34:10.795Z,69.96
2019-03-06T08:36:37.402Z,70.72
2019-03-06T08:39:07.709Z,71.22
2019-03-06T08:41:34.315Z,71.45
2019-03-06T08:44:00.934Z,71.51
2019-03-06T08:46:41.723Z,71.59
2019-03-06T08:49:27.941Z,71.71
2019-03-06T08:52:17.301Z,71.50
2019-03-06T08:55:11.000Z,72.35
2019-03-06T08:57:57.647Z,71.68
2019-03-06T09:00:44.157Z,70.98
2019-03-06T09:03:29.239Z,70.76
2019-03-06T09:06:15.464Z,70.58
2019-03-06T09:09:10.788Z,70.92
2019-03-06T09:11:52.674Z,70.52
2019-03-06T09:14:38.777Z,69.07
2019-03-06T09:17:27.658Z,69.15
2019-03-06T09:20:19.681Z,69.33
2019-03-06T09:23:08.941Z,67.20
2019-03-06T09:25:52.165Z,67.22
2019-03-06T09:28:50.700Z,67.08
2019-03-06T09:31:35.512Z,66.81
2019-03-06T09:34:12.580Z,66.39
2019-03-06T09:36:45.963Z,66.32
2019-03-06T09:39:52.231Z,65.59
2019-03-06T09:42:34.830Z,65.58
2019-03-06T09:45:24.718Z,64.94
2019-03-06T09:47:56.809Z,64.59
2019-03-06T09:50:28.562Z,64.94
2019-03-06T09:53:11.272Z,65.08
2019-03-06T09:55:59.306Z,64.91
2019-03-06T09:58:51.236Z,63.97
2019-03-06T10:01:37.033Z,63.34
2019-03-06T10:04:23.235Z,63.13
2019-03-06T10:07:16.088Z,62.70
2019-03-06T10:09:47.812Z,62.42
2019-03-06T10:12:27.579Z,62.04
2019-03-06T10:15:11.123Z,62.50
2019-03-06T10:17:55.251Z,61.85
2019-03-06T10:20:25.449Z,61.63
2019-03-06T10:22:51.262Z,60.57
2019-03-06T10:25:17.934Z,59.64
2019-03-06T10:27:44.968Z,59.23
2019-03-06T10:30:12.240Z,57.20
2019-03-06T10:32:39.342Z,57.40
2019-03-06T10:35:06.099Z,57.44
2019-03-06T10:37:32.835Z,56.89
2019-03-06T10:39:59.549Z,56.87
2019-03-06T10:42:26.254Z,57.50
2019-03-06T10:44:52.961Z,57.11
2019-03-06T10:47:19.661Z,56.24
2019-03-06T10:49:46.401Z,56.69
2019-03-06T10:52:13.091Z,55.22
2019-03-06T10:54:44.597Z,55.71
2019-03-06T10:57:08.623Z,55.37
2019-03-06T10:59:35.538Z,55.07
2019-03-06T11:02:02.270Z,54.60
2019-03-06T11:04:54.705Z,54.10
2019-03-06T11:07:21.440Z,52.60
2019-03-06T11:09:48.145Z,51.35
2019-03-06T11:12:14.902Z,51.66
2019-03-06T11:14:41.607Z,51.16
2019-03-06T11:17:08.320Z,51.39
2019-03-06T11:19:35.311Z,51.01
2019-03-06T11:22:02.013Z,50.04
2019-03-06T11:24:28.721Z,49.35
2019-03-06T11:26:55.423Z,49.88
2019-03-06T11:29:22.135Z,50.40
2019-03-06T11:31:48.843Z,48.81
2019-03-06T11:34:15.585Z,49.76
2019-03-06T11:36:42.280Z,47.88
2019-03-06T11:39:09.900Z,47.99
2019-03-06T11:41:37.098Z,47.76
2019-03-06T11:44:03.796Z,48.95
2019-03-06T11:46:30.484Z,46.74
2019-03-06T11:48:57.115Z,46.22
2019-03-06T11:51:23.936Z,46.13
2019-03-06T11:53:50.628Z,46.34
2019-03-06T11:56:17.328Z,44.91
2019-03-06T11:58:44.045Z,45.20
2019-03-06T12:01:13.271Z,45.17
2019-03-06T12:03:41.978Z,45.96
2019-03-06T12:06:08.500Z,46.38
2019-03-06T12:08:35.246Z,46.35
2019-03-06T12:11:01.987Z,46.36
2019-03-06T12:13:28.700Z,45.53
2019-03-06T12:15:55.404Z,45.85
2019-03-06T12:18:22.438Z,45.95
2019-03-06T12:20:49.131Z,45.21
2019-03-06T12:23:15.876Z,45.71
2019-03-06T12:25:42.571Z,46.20
2019-03-06T12:28:09.693Z,46.07
2019-03-06T12:30:36.718Z,46.86
2019-03-06T12:33:03.393Z,46.47
2019-03-06T12:35:30.405Z,46.74
2019-03-06T12:37:57.086Z,46.34
2019-03-06T12:40:23.814Z,46.11
2019-03-06T12:42:50.533Z,46.70
2019-03-06T12:45:17.258Z,46.33
2019-03-06T12:47:44.732Z,46.39
2019-03-06T12:50:13.465Z,45.48
2019-03-06T12:52:40.171Z,44.67
2019-03-06T12:55:07.521Z,44.95
2019-03-06T12:57:34.221Z,45.32
2019-03-06T13:00:00.918Z,45.25
2019-03-06T13:02:27.623Z,45.44
2019-03-06T13:04:54.332Z,46.44
2019-03-06T13:07:21.049Z,45.95
2019-03-06T13:09:47.869Z,46.71
2019-03-06T13:12:14.603Z,46.53
2019-03-06T13:14:41.335Z,46.57
2019-03-06T13:17:08.061Z,46.48
2019-03-06T13:19:34.759Z,46.99
2019-03-06T13:22:10.656Z,47.71
2019-03-06T13:24:29.910Z,47.90
2019-03-06T13:26:58.077Z,48.62
2019-03-06T13:29:25.904Z,48.95
2019-03-06T13:31:52.677Z,49.07
2019-03-06T13:34:38.813Z,48.94
2019-03-06T13:37:05.526Z,48.99
2019-03-06T13:39:32.645Z,48.77
2019-03-06T13:41:59.332Z,48.60
2019-03-06T13:44:26.061Z,48.46
2019-03-06T13:46:52.781Z,47.99
2019-03-06T13:49:19.496Z,47.64
2019-03-06T13:51:46.187Z,48.09
2019-03-06T13:54:12.901Z,48.22
2019-03-06T13:56:39.621Z,48.57
2019-03-06T13:59:14.737Z,48.83
2019-03-06T14:01:41.457Z,49.10
2019-03-06T14:04:08.216Z,49.64
2019-03-06T14:06:34.965Z,49.69
2019-03-06T14:09:01.672Z,49.74
2019-03-06T14:11:28.295Z,49.74
2019-03-06T14:13:55.027Z,50.27
2019-03-06T14:16:21.732Z,50.24
2019-03-06T14:18:48.474Z,50.02
2019-03-06T14:21:15.190Z,49.95
2019-03-06T14:23:41.900Z,50.06
2019-03-06T14:26:08.586Z,50.38
2019-03-06T14:28:35.316Z,50.37
2019-03-06T14:31:02.033Z,50.37
2019-03-06T14:33:29.076Z,50.63
2019-03-06T14:35:55.797Z,50.80
2019-03-06T14:38:22.496Z,51.11
2019-03-06T14:40:49.249Z,51.11
2019-03-06T14:43:15.980Z,50.99
2019-03-06T14:45:42.692Z,51.39
2019-03-06T14:48:09.410Z,51.38
2019-03-06T14:50:36.142Z,51.13
2019-03-06T14:53:03.456Z,51.23
2019-03-06T14:55:30.345Z,50.88
2019-03-06T14:57:57.058Z,51.22
2019-03-06T15:00:23.771Z,51.37
2019-03-06T15:02:50.510Z,51.89
2019-03-06T15:08:12.025Z,52.22
2019-03-06T15:10:42.860Z,52.11
2019-03-06T15:13:13.361Z,52.59
2019-03-06T15:15:40.351Z,52.68
2019-03-06T15:18:10.605Z,52.92
2019-03-06T15:20:42.287Z,53.44
2019-03-06T15:23:09.020Z,53.88
2019-03-06T15:25:35.750Z,54.09
2019-03-06T15:28:02.474Z,54.50
2019-03-06T15:30:29.197Z,54.82
2019-03-06T15:32:55.921Z,55.03
2019-03-06T15:35:22.662Z,55.46
2019-03-06T15:37:49.372Z,55.75
2019-03-06T15:45:44.295Z,56.36
2019-03-06T15:48:11.007Z,56.76
2019-03-06T15:50:37.725Z,57.04
2019-03-06T15:53:04.458Z,57.25
2019-03-06T15:58:26.007Z,59.98
2019-03-06T16:00:52.761Z,59.39
2019-03-06T16:03:19.482Z,58.05
2019-03-06T16:05:46.161Z,57.13
2019-03-06T16:08:12.882Z,57.20
2019-03-06T16:10:39.703Z,57.42
2019-03-06T16:13:06.411Z,57.33
2019-03-06T16:15:33.115Z,57.82
2019-03-06T16:18:00.056Z,57.59
2019-03-06T16:20:26.781Z,57.93
2019-03-06T16:22:53.500Z,58.57
2019-03-06T16:25:20.169Z,60.49
2019-03-06T16:27:46.888Z,59.98
2019-03-06T16:30:14.057Z,60.19
2019-03-06T16:32:40.805Z,58.99
2019-03-06T16:35:07.541Z,58.10
2019-03-06T16:37:34.230Z,57.64
2019-03-06T16:40:00.947Z,57.97
2019-03-06T16:42:27.655Z,58.33
2019-03-06T16:44:54.413Z,58.91
2019-03-06T16:47:32.768Z,59.48
2019-03-06T16:49:59.476Z,60.03
2019-03-06T16:52:26.215Z,60.58
2019-03-06T16:54:52.964Z,60.89
2019-03-06T16:57:19.707Z,61.28
2019-03-06T16:59:46.413Z,61.78
2019-03-06T17:02:21.390Z,62.36
2019-03-06T17:04:48.089Z,62.70
2019-03-06T17:07:14.823Z,63.26
2019-03-06T17:09:41.517Z,63.55
2019-03-06T17:12:08.238Z,63.82
2019-03-06T17:14:34.932Z,63.93
2019-03-06T17:17:09.736Z,64.16
2019-03-06T17:19:36.457Z,64.47
2019-03-06T17:22:03.167Z,65.05
2019-03-06T17:24:29.854Z,65.31
2019-03-06T17:26:56.560Z,65.65
2019-03-06T17:29:23.310Z,66.01
2019-03-06T17:31:50.038Z,66.30
2019-03-06T17:34:16.754Z,66.45
2019-03-06T17:36:43.462Z,66.91
2019-03-06T17:39:10.337Z,67.09
2019-03-06T17:41:37.062Z,67.09
2019-03-06T17:44:03.822Z,67.31
2019-03-06T17:46:30.502Z,67.57
2019-03-06T17:48:57.216Z,67.72
2019-03-06T17:51:35.422Z,67.79
2019-03-06T17:54:02.112Z,68.08
2019-03-06T17:56:28.837Z,68.15
2019-03-06T17:58:55.570Z,68.26
2019-03-06T18:01:22.300Z,68.41
2019-03-06T18:04:08.466Z,68.58
2019-03-06T18:06:35.158Z,69.02
2019-03-06T18:09:01.864Z,69.19
2019-03-06T18:11:28.584Z,69.55
2019-03-06T18:13:55.311Z,69.72
2019-03-06T18:16:22.034Z,70.18
2019-03-06T18:18:48.776Z,70.18
2019-03-06T18:21:15.488Z,70.26
2019-03-06T18:23:42.196Z,70.63
2019-03-06T18:26:08.913Z,70.78
2019-03-06T18:28:35.640Z,70.98
2019-03-06T18:31:02.350Z,71.07
2019-03-06T18:33:29.062Z,70.90
2019-03-06T18:35:55.773Z,72.74
2019-03-06T18:38:22.491Z,71.77
2019-03-06T18:40:49.235Z,70.59
2019-03-06T18:43:15.984Z,69.96
2019-03-06T18:45:42.712Z,69.99
2019-03-06T18:48:09.470Z,70.10
2019-03-06T18:50:36.218Z,70.08
2019-03-06T18:53:02.954Z,70.36
2019-03-06T18:55:29.664Z,70.41
2019-03-06T18:58:04.501Z,70.62
2019-03-06T19:00:31.223Z,70.87
2019-03-06T19:02:58.031Z,70.83
2019-03-06T19:05:27.918Z,71.00
2019-03-06T19:07:54.660Z,71.07
2019-03-06T19:10:21.402Z,71.24
2019-03-06T19:12:48.311Z,71.30
2019-03-06T19:15:15.886Z,71.94
2019-03-06T19:17:42.607Z,71.97
2019-03-06T19:20:09.359Z,72.15
2019-03-06T19:22:36.128Z,72.06
2019-03-06T19:25:02.873Z,72.28
2019-03-06T19:27:29.584Z,72.34
2019-03-06T19:29:56.343Z,72.40
2019-03-06T19:32:23.357Z,72.59
2019-03-06T19:34:50.189Z,72.85
2019-03-06T19:37:16.930Z,73.16
2019-03-06T19:39:43.677Z,73.32
2019-03-06T19:42:10.393Z,73.12
2019-03-06T19:44:37.136Z,73.06
2019-03-06T19:47:03.864Z,73.16
2019-03-06T19:49:30.594Z,73.15
2019-03-06T19:51:57.478Z,73.26
2019-03-06T19:54:24.226Z,73.25
2019-03-06T19:56:50.951Z,73.62
2019-03-06T19:59:17.680Z,77.17
2019-03-06T20:01:44.375Z,78.11
2019-03-06T20:04:11.143Z,76.66
2019-03-06T20:06:37.885Z,73.65
2019-03-06T20:09:18.409Z,71.20
2019-03-06T20:11:45.135Z,70.93
2019-03-06T20:14:11.911Z,70.83
2019-03-06T20:16:38.651Z,71.03
2019-03-06T20:19:05.419Z,71.08
2019-03-06T20:21:32.157Z,71.30
2019-03-06T20:23:58.895Z,71.56
2019-03-06T20:26:25.723Z,72.00
2019-03-06T20:28:52.447Z,72.56
2019-03-06T20:31:19.194Z,72.87
2019-03-06T20:33:45.903Z,72.87
2019-03-06T20:36:12.673Z,72.86
2019-03-06T20:38:39.401Z,73.12
2019-03-06T20:41:06.152Z,73.21
2019-03-06T20:43:32.897Z,73.26
2019-03-06T20:45:59.749Z,73.56
2019-03-06T20:48:26.484Z,73.96
2019-03-06T20:50:53.214Z,74.33
2019-03-06T20:53:19.932Z,74.35
2019-03-06T20:55:46.645Z,74.17
2019-03-06T20:58:13.400Z,74.25
2019-03-06T21:00:40.127Z,74.25
2019-03-06T21:03:06.841Z,74.17
2019-03-06T21:05:33.551Z,74.14
2019-03-06T21:08:00.281Z,74.22
2019-03-06T21:10:26.988Z,74.32
2019-03-06T21:13:02.194Z,74.43
2019-03-06T21:18:23.506Z,74.87
2019-03-06T21:20:50.241Z,74.61
2019-03-06T21:23:17.007Z,74.60
2019-03-06T21:25:43.765Z,74.43
2019-03-06T21:28:10.508Z,74.72
2019-03-06T21:30:38.306Z,74.62
2019-03-06T21:33:05.014Z,74.88
2019-03-06T21:35:31.750Z,75.18
2019-03-06T21:37:58.476Z,75.16
2019-03-06T21:40:25.224Z,75.02
2019-03-06T21:42:52.042Z,75.03
2019-03-06T21:45:18.800Z,75.24
2019-03-06T21:47:45.547Z,75.19
2019-03-06T21:50:12.305Z,75.13
2019-03-06T21:52:39.056Z,75.11
2019-03-06T21:55:06.712Z,75.13
2019-03-06T21:57:33.546Z,75.24
2019-03-06T22:00:10.346Z,75.38
2019-03-06T22:02:37.050Z,75.47
2019-03-06T22:05:03.869Z,75.41
2019-03-06T22:07:30.631Z,75.35
2019-03-06T22:09:57.342Z,75.09
2019-03-06T22:12:24.041Z,75.15
2019-03-06T22:14:50.739Z,75.20
2019-03-06T22:17:17.526Z,75.10
2019-03-06T22:19:44.262Z,74.97
2019-03-06T22:22:10.973Z,74.98
2019-03-06T22:24:37.674Z,74.85
2019-03-06T22:27:04.408Z,74.81
2019-03-06T22:29:31.100Z,74.80
2019-03-06T22:31:57.813Z,74.59
2019-03-06T22:34:24.828Z,74.68
2019-03-06T22:36:51.669Z,74.58
2019-03-06T22:39:18.366Z,74.66
2019-03-06T22:41:45.129Z,74.98
2019-03-06T22:44:11.848Z,75.14
2019-03-06T22:46:38.571Z,75.28
2019-03-06T22:49:05.279Z,75.34
2019-03-06T22:51:31.994Z,75.32
2019-03-06T22:53:58.789Z,75.24
2019-03-06T22:56:25.505Z,75.17
2019-03-06T22:58:52.210Z,75.14
2019-03-06T23:01:20.803Z,75.10
2019-03-06T23:03:47.503Z,75.12
2019-03-06T23:06:14.197Z,75.04
2019-03-06T23:08:40.816Z,75.07
2019-03-06T23:11:07.608Z,75.11
2019-03-06T23:13:34.361Z,75.16
2019-03-06T23:16:01.059Z,75.14
2019-03-06T23:18:27.769Z,74.85
2019-03-06T23:20:54.495Z,74.76
2019-03-06T23:23:21.193Z,74.80
2019-03-06T23:25:47.933Z,74.97
2019-03-06T23:28:15.801Z,74.84
2019-03-06T23:30:42.412Z,75.07
2019-03-06T23:33:09.113Z,75.23
2019-03-06T23:35:35.817Z,75.08
2019-03-06T23:38:02.419Z,75.02
2019-03-06T23:40:29.112Z,74.81
2019-03-06T23:42:55.748Z,74.56
2019-03-06T23:45:22.734Z,74.25
2019-03-06T23:47:49.461Z,73.85
2019-03-06T23:50:16.168Z,73.44
2019-03-06T23:53:03.932Z,73.08
2019-03-06T23:55:31.160Z,72.93
2019-03-06T23:57:57.880Z,72.76
